createdAt,value
2023-05-02T00:00:50.696Z,99139.13
2023-05-02T00:03:25.678Z,99140.06
2023-05-02T00:05:58.607Z,99133.31
2023-05-02T00:08:31.525Z,99137.22
2023-05-02T00:11:04.409Z,99127.63
2023-05-02T00:13:37.303Z,99125.28
2023-05-02T00:16:11.113Z,99117.91
2023-05-02T00:18:45.575Z,99116.25
2023-05-02T00:21:18.340Z,99120.34
2023-05-02T00:23:52.147Z,99123.03
2023-05-02T00:26:25.002Z,99112.06
2023-05-02T00:28:59.066Z,99119.59
2023-05-02T00:31:32.303Z,99118.44
2023-05-02T00:34:06.750Z,99117.56
2023-05-02T00:36:39.588Z,99122.75
2023-05-02T00:39:12.456Z,99124.38
2023-05-02T00:41:45.569Z,99126.03
2023-05-02T00:44:18.412Z,99124.84
2023-05-02T00:46:52.781Z,99119.31
2023-05-02T00:49:27.462Z,99121.97
2023-05-02T00:52:00.942Z,99119.56
2023-05-02T00:54:34.005Z,99114.22
2023-05-02T00:57:06.853Z,99111.41
2023-05-02T00:59:40.458Z,99106.81
2023-05-02T01:02:27.110Z,99105.16
2023-05-02T01:05:11.483Z,99110.03
2023-05-02T01:08:02.266Z,99102.41
2023-05-02T01:10:54.960Z,99108.94
2023-05-02T01:13:33.074Z,99105.00
2023-05-02T01:16:08.954Z,99111.56
2023-05-02T01:18:43.513Z,99103.31
2023-05-02T01:21:17.784Z,99113.50
2023-05-02T01:24:04.333Z,99117.91
2023-05-02T01:26:46.828Z,99121.00
2023-05-02T01:29:24.038Z,99111.09
2023-05-02T01:31:59.823Z,99119.34
2023-05-02T01:34:35.401Z,99125.13
2023-05-02T01:37:12.204Z,99119.53
2023-05-02T01:39:45.630Z,99124.53
2023-05-02T01:42:21.237Z,99132.06
2023-05-02T01:44:56.780Z,99145.31
2023-05-02T01:47:33.776Z,99141.84
2023-05-02T01:50:09.503Z,99150.84
2023-05-02T01:52:43.237Z,99148.47
2023-05-02T01:55:18.680Z,99155.59
2023-05-02T01:57:55.362Z,99157.59
2023-05-02T02:00:31.548Z,99158.59
2023-05-02T02:03:07.404Z,99163.84
2023-05-02T02:05:42.375Z,99155.22
2023-05-02T02:08:15.092Z,99168.22
2023-05-02T02:10:55.398Z,99161.50
2023-05-02T02:13:35.569Z,99172.66
2023-05-02T02:16:14.384Z,99170.53
2023-05-02T02:18:47.629Z,99180.03
2023-05-02T02:21:22.665Z,99179.56
2023-05-02T02:23:58.571Z,99176.50
2023-05-02T02:26:31.554Z,99179.19
2023-05-02T02:29:05.342Z,99183.47
2023-05-02T02:31:42.692Z,99184.78
2023-05-02T02:34:16.187Z,99180.88
2023-05-02T02:36:54.956Z,99191.69
2023-05-02T02:39:41.475Z,99195.28
2023-05-02T02:42:19.966Z,99193.69
2023-05-02T02:44:57.802Z,99199.69
2023-05-02T02:47:42.433Z,99201.28
2023-05-02T02:50:20.691Z,99198.06
2023-05-02T02:52:56.672Z,99197.22
2023-05-02T02:55:37.799Z,99214.53
2023-05-02T02:58:21.134Z,99210.25
2023-05-02T03:00:54.542Z,99209.41
2023-05-02T03:03:29.594Z,99223.19
2023-05-02T03:06:04.862Z,99230.72
2023-05-02T03:08:41.688Z,99224.06
2023-05-02T03:11:18.369Z,99223.56
2023-05-02T03:13:52.882Z,99227.94
2023-05-02T03:16:37.093Z,99220.19
2023-05-02T03:19:14.006Z,99233.41
2023-05-02T03:21:46.861Z,99231.13
2023-05-02T03:24:24.340Z,99232.63
2023-05-02T03:27:00.062Z,99239.94
2023-05-02T03:29:38.846Z,99237.16
2023-05-02T03:32:11.943Z,99231.88
2023-05-02T03:34:47.815Z,99236.69
2023-05-02T03:37:20.675Z,99231.00
2023-05-02T03:39:53.646Z,99243.25
2023-05-02T03:42:26.557Z,99241.31
2023-05-02T03:44:59.375Z,99245.50
2023-05-02T03:47:34.193Z,99242.94
2023-05-02T03:50:09.633Z,99251.53
2023-05-02T03:52:42.809Z,99248.59
2023-05-02T03:55:15.818Z,99258.34
2023-05-02T03:57:49.187Z,99251.78
2023-05-02T04:00:22.988Z,99253.19
2023-05-02T04:03:03.618Z,99257.25
2023-05-02T04:05:39.295Z,99264.13
2023-05-02T04:08:13.408Z,99265.31
2023-05-02T04:10:46.605Z,99269.91
2023-05-02T04:13:20.410Z,99269.88
2023-05-02T04:15:55.156Z,99268.94
2023-05-02T04:18:29.469Z,99278.22
2023-05-02T04:21:03.795Z,99274.88
2023-05-02T04:23:37.232Z,99284.09
2023-05-02T04:26:11.126Z,99277.28
2023-05-02T04:28:51.153Z,99282.53
2023-05-02T04:31:24.168Z,99279.06
2023-05-02T04:33:57.564Z,99283.06
2023-05-02T04:36:34.715Z,99288.84
2023-05-02T04:39:08.537Z,99297.28
2023-05-02T04:41:44.164Z,99304.69
2023-05-02T04:44:16.957Z,99306.06
2023-05-02T04:46:50.629Z,99311.59
2023-05-02T04:49:24.794Z,99313.81
2023-05-02T04:51:59.110Z,99314.41
2023-05-02T04:54:33.604Z,99318.19
2023-05-02T04:57:08.141Z,99319.91
2023-05-02T04:59:43.474Z,99325.06
2023-05-02T05:02:16.406Z,99333.22
2023-05-02T05:04:49.247Z,99343.28
2023-05-02T05:07:25.697Z,99346.78
2023-05-02T05:10:00.572Z,99353.06
2023-05-02T05:12:38.239Z,99358.50
2023-05-02T05:15:12.260Z,99353.38
2023-05-02T05:17:49.611Z,99363.06
2023-05-02T05:20:22.780Z,99356.56
2023-05-02T05:23:00.047Z,99367.81
2023-05-02T05:25:33.994Z,99373.28
2023-05-02T05:28:07.101Z,99367.13
2023-05-02T05:30:42.140Z,99372.59
2023-05-02T05:33:18.198Z,99376.84
2023-05-02T05:35:51.303Z,99378.50
2023-05-02T05:38:25.632Z,99386.22
2023-05-02T05:40:58.635Z,99387.63
2023-05-02T05:43:32.435Z,99399.88
2023-05-02T05:46:06.057Z,99401.03
2023-05-02T05:48:40.552Z,99401.97
2023-05-02T05:51:13.555Z,99400.38
2023-05-02T05:53:47.863Z,99405.34
2023-05-02T05:56:21.949Z,99400.13
2023-05-02T05:59:05.182Z,99398.88
2023-05-02T06:01:39.089Z,99413.41
2023-05-02T06:04:12.248Z,99404.53
2023-05-02T06:06:48.084Z,99413.78
2023-05-02T06:09:22.418Z,99419.81
2023-05-02T06:11:55.210Z,99422.50
2023-05-02T06:14:28.001Z,99423.06
2023-05-02T06:17:00.954Z,99427.78
2023-05-02T06:19:34.587Z,99431.69
2023-05-02T06:22:07.358Z,99443.50
2023-05-02T06:24:41.406Z,99436.50
2023-05-02T06:27:14.223Z,99444.59
2023-05-02T06:29:47.033Z,99446.47
2023-05-02T06:32:19.941Z,99452.06
2023-05-02T06:34:52.836Z,99455.09
2023-05-02T06:37:26.071Z,99454.56
2023-05-02T06:40:00.885Z,99461.72
2023-05-02T06:42:33.811Z,99462.78
2023-05-02T06:45:07.779Z,99461.03
2023-05-02T06:47:40.593Z,99463.31
2023-05-02T06:50:13.400Z,99470.47
2023-05-02T06:52:46.158Z,99468.78
2023-05-02T06:55:21.151Z,99473.91
2023-05-02T06:57:54.346Z,99477.38
2023-05-02T07:00:27.154Z,99484.09
2023-05-02T07:03:00.404Z,99479.13
2023-05-02T07:05:33.521Z,99486.16
2023-05-02T07:08:06.800Z,99494.81
2023-05-02T07:10:40.992Z,99495.63
2023-05-02T07:13:13.818Z,99494.81
2023-05-02T07:15:46.629Z,99495.97
2023-05-02T07:18:19.515Z,99514.97
2023-05-02T07:20:52.487Z,99506.19
2023-05-02T07:23:25.378Z,99506.38
2023-05-02T07:25:59.577Z,99507.56
2023-05-02T07:28:32.811Z,99508.72
2023-05-02T07:31:05.706Z,99517.56
2023-05-02T07:33:38.393Z,99518.31
2023-05-02T07:36:11.130Z,99522.38
2023-05-02T07:38:43.889Z,99520.53
2023-05-02T07:41:17.984Z,99519.56
2023-05-02T07:43:50.763Z,99525.34
2023-05-02T07:46:23.597Z,99521.78
2023-05-02T07:48:56.428Z,99520.31
2023-05-02T07:51:29.251Z,99529.09
2023-05-02T07:54:02.202Z,99531.34
2023-05-02T07:56:36.555Z,99534.63
2023-05-02T07:59:09.600Z,99533.03
2023-05-02T08:01:42.691Z,99532.22
2023-05-02T08:04:16.032Z,99535.03
2023-05-02T08:06:48.960Z,99531.44
2023-05-02T08:09:21.828Z,99538.66
2023-05-02T08:11:55.908Z,99537.53
2023-05-02T08:14:29.019Z,99537.44
2023-05-02T08:17:02.216Z,99541.94
2023-05-02T08:19:34.976Z,99554.41
2023-05-02T08:22:07.917Z,99545.63
2023-05-02T08:24:40.810Z,99539.78
2023-05-02T08:27:15.418Z,99553.50
2023-05-02T08:29:48.381Z,99551.56
2023-05-02T08:32:22.374Z,99549.47
2023-05-02T08:34:56.180Z,99551.00
2023-05-02T08:37:28.979Z,99561.16
2023-05-02T08:40:02.359Z,99560.50
2023-05-02T08:42:37.306Z,99568.22
2023-05-02T08:45:13.907Z,99559.84
2023-05-02T08:47:49.466Z,99557.31
2023-05-02T08:50:23.155Z,99560.53
2023-05-02T08:52:58.116Z,99560.19
2023-05-02T08:55:31.680Z,99552.59
2023-05-02T08:58:06.061Z,99567.41
2023-05-02T09:00:41.024Z,99568.47
2023-05-02T09:03:30.118Z,99571.13
2023-05-02T09:06:08.073Z,99571.53
2023-05-02T09:08:41.645Z,99582.09
2023-05-02T09:11:14.720Z,99589.19
2023-05-02T09:13:49.729Z,99581.91
2023-05-02T09:16:25.441Z,99587.75
2023-05-02T09:18:59.746Z,99586.59
2023-05-02T09:21:38.429Z,99586.03
2023-05-02T09:24:19.342Z,99588.50
2023-05-02T09:27:01.095Z,99585.63
2023-05-02T09:29:37.887Z,99590.97
2023-05-02T09:32:10.709Z,99587.59
2023-05-02T09:35:08.398Z,99586.81
2023-05-02T09:37:41.289Z,99590.47
2023-05-02T09:40:14.922Z,99582.50
2023-05-02T09:42:47.941Z,99586.13
2023-05-02T09:45:22.610Z,99592.28
2023-05-02T09:47:55.449Z,99580.28
2023-05-02T09:50:37.143Z,99585.91
2023-05-02T09:53:11.808Z,99591.16
2023-05-02T09:55:44.512Z,99591.84
2023-05-02T09:58:24.552Z,99599.06
2023-05-02T10:00:58.162Z,99590.03
2023-05-02T10:03:32.241Z,99586.63
2023-05-02T10:06:10.421Z,99584.66
2023-05-02T10:08:45.372Z,99583.22
2023-05-02T10:11:18.694Z,99584.63
2023-05-02T10:13:51.926Z,99586.03
2023-05-02T10:16:30.400Z,99585.53
2023-05-02T10:19:08.350Z,99585.34
2023-05-02T10:21:44.790Z,99579.25
2023-05-02T10:24:18.100Z,99583.53
2023-05-02T10:26:51.591Z,99585.75
2023-05-02T10:29:24.982Z,99592.41
2023-05-02T10:31:58.993Z,99583.75
2023-05-02T10:34:33.981Z,99587.06
2023-05-02T10:37:08.314Z,99595.16
2023-05-02T10:39:41.355Z,99580.66
2023-05-02T10:42:15.700Z,99578.44
2023-05-02T10:44:49.191Z,99582.28
2023-05-02T10:47:22.758Z,99582.03
2023-05-02T10:49:58.044Z,99567.56
2023-05-02T10:52:35.360Z,99567.78
2023-05-02T10:55:19.280Z,99563.91
2023-05-02T10:58:24.880Z,99560.97
2023-05-02T11:01:37.042Z,99569.34
2023-05-02T11:04:11.374Z,99569.81
2023-05-02T11:07:19.206Z,99569.94
2023-05-02T11:09:53.625Z,99570.13
2023-05-02T11:12:46.523Z,99581.13
2023-05-02T11:15:59.864Z,99580.59
2023-05-02T11:19:00.761Z,99596.13
2023-05-02T11:21:33.691Z,99595.09
2023-05-02T11:24:40.369Z,99580.47
2023-05-02T11:27:44.236Z,99590.53
2023-05-02T11:30:44.300Z,99597.31
2023-05-02T11:33:18.347Z,99586.44
2023-05-02T11:35:51.561Z,99581.59
2023-05-02T11:38:24.584Z,99581.09
2023-05-02T11:40:59.482Z,99587.22
2023-05-02T11:43:34.020Z,99585.06
2023-05-02T11:46:07.894Z,99587.50
2023-05-02T11:48:42.512Z,99599.25
2023-05-02T11:51:15.386Z,99597.97
2023-05-02T11:53:48.705Z,99593.09
2023-05-02T11:56:26.547Z,99604.25
2023-05-02T11:59:01.763Z,99603.28
2023-05-02T12:01:34.461Z,99607.81
2023-05-02T12:04:10.311Z,99606.13
2023-05-02T12:06:56.082Z,99602.44
2023-05-02T12:09:28.945Z,99610.13
2023-05-02T12:12:02.727Z,99602.63
2023-05-02T12:14:38.000Z,99601.59
2023-05-02T12:17:11.465Z,99610.06
2023-05-02T12:19:44.743Z,99603.59
2023-05-02T12:22:18.684Z,99605.97
2023-05-02T12:24:53.426Z,99605.66
2023-05-02T12:27:26.967Z,99604.34
2023-05-02T12:30:01.876Z,99599.50
2023-05-02T12:32:37.583Z,99608.94
2023-05-02T12:35:22.843Z,99599.94
2023-05-02T12:37:56.073Z,99597.88
2023-05-02T12:40:28.816Z,99600.44
2023-05-02T12:43:04.322Z,99606.50
2023-05-02T12:45:38.684Z,99607.00
2023-05-02T12:48:25.567Z,99603.28
2023-05-02T12:50:58.624Z,99600.00
2023-05-02T12:53:42.092Z,99610.56
2023-05-02T12:56:15.258Z,99610.22
2023-05-02T12:58:49.322Z,99621.47
2023-05-02T13:01:23.824Z,99606.00
2023-05-02T13:03:56.834Z,99616.53
2023-05-02T13:06:29.814Z,99621.31
2023-05-02T13:09:02.881Z,99617.38
2023-05-02T13:11:35.625Z,99613.69
2023-05-02T13:14:08.590Z,99620.75
2023-05-02T13:16:42.692Z,99622.16
2023-05-02T13:19:15.501Z,99606.25
2023-05-02T13:21:48.422Z,99616.00
2023-05-02T13:24:21.159Z,99603.28
2023-05-02T13:26:53.861Z,99600.44
2023-05-02T13:29:26.605Z,99594.44
2023-05-02T13:32:00.778Z,99609.09
2023-05-02T13:34:33.757Z,99615.06
2023-05-02T13:37:06.548Z,99616.41
2023-05-02T13:39:39.303Z,99615.31
2023-05-02T13:42:12.001Z,99614.97
2023-05-02T13:44:44.798Z,99600.47
2023-05-02T13:47:18.872Z,99596.75
2023-05-02T13:49:52.137Z,99602.34
2023-05-02T13:52:25.007Z,99611.50
2023-05-02T13:54:57.762Z,99597.84
2023-05-02T13:57:30.447Z,99604.00
2023-05-02T14:00:04.141Z,99609.16
2023-05-02T14:02:39.983Z,99613.38
2023-05-02T14:05:13.030Z,99609.03
2023-05-02T14:07:45.989Z,99598.97
2023-05-02T14:10:18.949Z,99603.31
2023-05-02T14:12:53.076Z,99607.25
2023-05-02T14:15:27.023Z,99608.84
2023-05-02T14:18:01.285Z,99609.22
2023-05-02T14:20:34.035Z,99602.09
2023-05-02T14:23:07.573Z,99603.59
2023-05-02T14:25:40.703Z,99598.91
2023-05-02T14:28:13.376Z,99601.56
2023-05-02T14:30:46.113Z,99600.94
2023-05-02T14:33:20.256Z,99594.56
2023-05-02T14:35:52.996Z,99597.50
2023-05-02T14:38:25.856Z,99600.72
2023-05-02T14:40:58.633Z,99603.28
2023-05-02T14:43:31.615Z,99603.16
2023-05-02T14:46:04.448Z,99603.19
2023-05-02T14:48:38.584Z,99597.09
2023-05-02T14:51:11.429Z,99594.50
2023-05-02T14:53:44.382Z,99593.66
2023-05-02T14:56:18.725Z,99598.88
2023-05-02T14:58:51.567Z,99605.34
2023-05-02T15:01:24.654Z,99605.47
2023-05-02T15:04:06.809Z,99611.19
2023-05-02T15:06:41.013Z,99602.78
2023-05-02T15:09:14.207Z,99606.84
2023-05-02T15:11:47.197Z,99611.75
2023-05-02T15:14:19.965Z,99616.09
2023-05-02T15:16:52.875Z,99612.84
2023-05-02T15:19:27.905Z,99626.56
2023-05-02T15:22:01.717Z,99627.22
2023-05-02T15:24:34.503Z,99629.09
2023-05-02T15:27:09.433Z,99629.63
2023-05-02T15:29:42.300Z,99631.53
2023-05-02T15:32:15.109Z,99633.00
2023-05-02T15:34:49.352Z,99634.72
2023-05-02T15:37:22.080Z,99645.22
2023-05-02T15:39:54.808Z,99644.75
2023-05-02T15:42:27.573Z,99648.50
2023-05-02T15:45:00.231Z,99650.69
2023-05-02T15:47:33.042Z,99648.16
2023-05-02T15:50:08.417Z,99650.22
2023-05-02T15:52:41.146Z,99661.34
2023-05-02T15:55:13.864Z,99648.00
2023-05-02T15:57:47.116Z,99655.06
2023-05-02T16:00:20.343Z,99652.91
2023-05-02T16:02:53.330Z,99651.66
2023-05-02T16:05:27.452Z,99650.41
2023-05-02T16:08:01.610Z,99650.69
2023-05-02T16:10:36.761Z,99649.13
2023-05-02T16:13:09.645Z,99653.81
2023-05-02T16:15:42.349Z,99657.06
2023-05-02T16:18:15.205Z,99657.00
2023-05-02T16:20:50.108Z,99654.88
2023-05-02T16:23:23.534Z,99660.88
2023-05-02T16:26:00.018Z,99665.28
2023-05-02T16:28:32.815Z,99662.19
2023-05-02T16:31:11.012Z,99656.53
2023-05-02T16:33:44.015Z,99664.28
2023-05-02T16:36:18.747Z,99663.00
2023-05-02T16:38:51.580Z,99668.69
2023-05-02T16:41:24.293Z,99668.84
2023-05-02T16:43:57.097Z,99665.84
2023-05-02T16:46:29.811Z,99668.31
2023-05-02T16:49:02.539Z,99669.13
2023-05-02T16:51:36.860Z,99676.06
2023-05-02T16:54:10.745Z,99681.25
2023-05-02T16:56:43.573Z,99682.81
2023-05-02T16:59:16.318Z,99681.88
2023-05-02T17:01:50.251Z,99684.41
2023-05-02T17:04:23.088Z,99686.22
2023-05-02T17:06:57.222Z,99694.47
2023-05-02T17:09:30.176Z,99697.28
2023-05-02T17:12:04.480Z,99691.69
2023-05-02T17:14:38.551Z,99700.66
2023-05-02T17:17:11.418Z,99706.91
2023-05-02T17:19:44.263Z,99695.69
2023-05-02T17:22:19.020Z,99706.22
2023-05-02T17:24:54.016Z,99694.91
2023-05-02T17:27:27.230Z,99698.53
2023-05-02T17:30:00.253Z,99712.38
2023-05-02T17:32:34.849Z,99710.66
2023-05-02T17:35:08.164Z,99713.50
2023-05-02T17:37:42.295Z,99716.22
2023-05-02T17:40:15.077Z,99721.88
2023-05-02T17:42:47.877Z,99730.44
2023-05-02T17:45:20.620Z,99720.53
2023-05-02T17:47:53.582Z,99726.66
2023-05-02T17:50:26.344Z,99733.66
2023-05-02T17:53:00.563Z,99735.22
2023-05-02T17:55:33.981Z,99747.09
2023-05-02T17:58:07.061Z,99746.31
2023-05-02T18:00:40.474Z,99753.63
2023-05-02T18:03:13.474Z,99756.66
2023-05-02T18:05:47.861Z,99762.25
2023-05-02T18:08:22.378Z,99769.44
2023-05-02T18:10:55.202Z,99772.28
2023-05-02T18:13:32.530Z,99776.97
2023-05-02T18:16:06.208Z,99783.94
2023-05-02T18:18:39.031Z,99786.28
2023-05-02T18:21:12.308Z,99796.13
2023-05-02T18:23:47.004Z,99798.88
2023-05-02T18:26:28.905Z,99802.03
2023-05-02T18:29:01.651Z,99803.34
2023-05-02T18:31:35.981Z,99807.50
2023-05-02T18:34:08.844Z,99818.94
2023-05-02T18:36:41.649Z,99816.13
2023-05-02T18:39:16.157Z,99824.91
2023-05-02T18:41:48.947Z,99820.28
2023-05-02T18:44:21.826Z,99822.41
2023-05-02T18:46:54.531Z,99823.31
2023-05-02T18:49:27.444Z,99831.97
2023-05-02T18:52:00.616Z,99839.88
2023-05-02T18:54:34.697Z,99852.75
2023-05-02T18:57:07.918Z,99853.16
2023-05-02T18:59:40.604Z,99860.56
2023-05-02T19:02:13.298Z,99858.25
2023-05-02T19:04:46.375Z,99858.97
2023-05-02T19:07:19.240Z,99861.63
2023-05-02T19:09:53.363Z,99865.84
2023-05-02T19:12:26.176Z,99868.31
2023-05-02T19:14:58.918Z,99873.34
2023-05-02T19:17:31.800Z,99875.47
2023-05-02T19:20:06.265Z,99876.56
2023-05-02T19:22:39.110Z,99888.50
2023-05-02T19:25:13.832Z,99893.63
2023-05-02T19:27:47.707Z,99892.84
2023-05-02T19:30:21.738Z,99897.31
2023-05-02T19:32:54.689Z,99899.28
2023-05-02T19:35:27.883Z,99896.63
2023-05-02T19:38:00.641Z,99900.34
2023-05-02T19:40:35.054Z,99900.28
2023-05-02T19:43:07.770Z,99899.13
2023-05-02T19:45:40.576Z,99914.81
2023-05-02T19:48:14.678Z,99907.84
2023-05-02T19:50:47.526Z,99927.78
2023-05-02T19:53:20.386Z,99919.78
2023-05-02T19:55:54.523Z,99931.63
2023-05-02T19:58:27.794Z,99936.56
2023-05-02T20:01:00.618Z,99937.78
2023-05-02T20:03:34.719Z,99941.00
2023-05-02T20:06:07.791Z,99944.59
2023-05-02T20:08:40.826Z,99951.38
2023-05-02T20:11:14.833Z,99945.69
2023-05-02T20:13:47.506Z,99943.25
2023-05-02T20:16:20.638Z,99948.44
2023-05-02T20:18:53.822Z,99948.56
2023-05-02T20:21:26.733Z,99947.44
2023-05-02T20:23:59.596Z,99955.00
2023-05-02T20:26:34.719Z,99958.94
2023-05-02T20:29:07.921Z,99960.84
2023-05-02T20:31:41.341Z,99964.44
2023-05-02T20:34:15.042Z,99968.84
2023-05-02T20:36:48.303Z,99976.19
2023-05-02T20:39:22.065Z,99979.19
2023-05-02T20:41:58.495Z,99976.78
2023-05-02T20:44:33.645Z,99988.88
2023-05-02T20:47:07.447Z,99988.03
2023-05-02T20:49:41.475Z,99992.16
2023-05-02T20:52:16.367Z,99993.63
2023-05-02T20:54:50.955Z,99994.44
2023-05-02T20:57:26.157Z,99988.59
2023-05-02T21:00:00.829Z,99988.88
2023-05-02T21:02:34.511Z,99986.66
2023-05-02T21:05:07.966Z,99986.19
2023-05-02T21:07:41.497Z,99984.25
2023-05-02T21:10:15.013Z,99982.16
2023-05-02T21:12:49.185Z,99988.63
2023-05-02T21:15:21.963Z,99989.13
2023-05-02T21:18:02.083Z,99985.94
2023-05-02T21:20:34.932Z,99986.00
2023-05-02T21:23:07.684Z,99994.00
2023-05-02T21:25:40.702Z,99985.59
2023-05-02T21:28:14.717Z,99993.75
2023-05-02T21:30:47.442Z,99990.59
2023-05-02T21:33:20.146Z,99993.78
2023-05-02T21:35:56.886Z,99987.06
2023-05-02T21:38:29.847Z,99985.38
2023-05-02T21:41:03.584Z,99992.72
2023-05-02T21:43:39.883Z,99996.34
2023-05-02T21:46:13.164Z,100001.72
2023-05-02T21:48:46.048Z,99992.38
2023-05-02T21:51:19.239Z,99994.72
2023-05-02T21:53:53.708Z,99995.97
2023-05-02T21:56:26.753Z,100002.09
2023-05-02T21:59:00.971Z,99999.25
2023-05-02T22:01:33.953Z,100001.25
2023-05-02T22:04:06.676Z,100001.63
2023-05-02T22:06:39.443Z,100001.63
2023-05-02T22:09:13.604Z,100008.13
2023-05-02T22:11:46.334Z,100016.28
2023-05-02T22:14:22.099Z,100013.09
2023-05-02T22:16:58.403Z,100012.00
2023-05-02T22:19:31.476Z,100007.56
2023-05-02T22:22:05.321Z,100011.56
2023-05-02T22:24:38.153Z,100014.88
2023-05-02T22:27:10.907Z,100014.72
2023-05-02T22:29:44.963Z,100019.88
2023-05-02T22:32:18.851Z,100024.84
2023-05-02T22:34:51.746Z,100030.78
2023-05-02T22:37:24.493Z,100027.72
2023-05-02T22:39:57.218Z,100019.66
2023-05-02T22:42:29.932Z,100035.75
2023-05-02T22:45:04.330Z,100031.78
2023-05-02T22:47:37.221Z,100030.63
2023-05-02T22:50:11.210Z,100040.53
2023-05-02T22:52:44.766Z,100040.16
2023-05-02T22:55:17.847Z,100035.03
2023-05-02T22:57:50.666Z,100035.81
2023-05-02T23:00:25.887Z,100032.66
2023-05-02T23:02:58.952Z,100039.13
2023-05-02T23:05:32.129Z,100039.47
2023-05-02T23:08:05.277Z,100044.69
2023-05-02T23:10:38.037Z,100041.91
2023-05-02T23:13:11.091Z,100047.09
2023-05-02T23:15:45.240Z,100043.53
2023-05-02T23:18:18.403Z,100040.75
2023-05-02T23:20:51.990Z,100036.38
2023-05-02T23:23:25.058Z,100036.38
2023-05-02T23:25:57.817Z,100038.34
2023-05-02T23:28:30.636Z,100040.72
2023-05-02T23:31:05.508Z,100033.94
2023-05-02T23:33:38.852Z,100024.78
2023-05-02T23:36:11.702Z,100038.28
2023-05-02T23:38:44.799Z,100029.56
2023-05-02T23:41:17.690Z,100031.16
2023-05-02T23:43:50.905Z,100031.94
2023-05-02T23:46:25.160Z,100039.09
2023-05-02T23:48:57.974Z,100025.94
2023-05-02T23:51:31.759Z,100035.50
2023-05-02T23:54:04.524Z,100026.34
2023-05-02T23:56:37.362Z,100024.72
2023-05-02T23:59:10.213Z,100027.91
